createdAt,value
2019-02-24T00:03:14.973Z,-1.74
2019-02-24T00:13:19.770Z,-1.68
2019-02-24T00:23:24.540Z,-1.83
2019-02-24T00:33:30.460Z,-1.66
2019-02-24T00:43:35.140Z,-1.40
2019-02-24T00:53:39.826Z,-1.54
2019-02-24T01:03:47.490Z,-1.41
2019-02-24T01:13:53.954Z,-1.39
2019-02-24T01:23:58.690Z,-1.34
2019-02-24T01:34:03.395Z,-1.29
2019-02-24T01:44:08.183Z,-1.25
2019-02-24T01:54:12.863Z,-1.19
2019-02-24T02:04:17.867Z,-0.89
2019-02-24T02:14:23.669Z,-1.04
2019-02-24T02:24:28.345Z,-0.90
2019-02-24T02:34:33.047Z,-0.94
2019-02-24T02:44:37.944Z,-1.04
2019-02-24T02:54:42.626Z,-0.89
2019-02-24T03:04:47.409Z,-0.74
2019-02-24T03:14:52.055Z,-0.81
2019-02-24T03:24:56.783Z,-0.86
2019-02-24T03:35:01.567Z,-0.79
2019-02-24T03:45:08.918Z,-0.80
2019-02-24T03:55:14.624Z,-0.75
2019-02-24T04:05:19.316Z,-0.79
2019-02-24T04:15:24.014Z,-0.81
2019-02-24T04:25:28.699Z,-0.83
2019-02-24T04:35:33.382Z,-0.78
2019-02-24T04:45:38.159Z,-0.81
2019-02-24T04:55:42.837Z,-0.66
2019-02-24T05:05:47.532Z,-0.79
2019-02-24T05:15:52.351Z,-0.70
2019-02-24T05:25:57.301Z,-0.82
2019-02-24T05:36:02.101Z,-0.72
2019-02-24T05:46:08.032Z,-0.76
2019-02-24T05:56:12.733Z,-0.57
2019-02-24T06:06:17.609Z,-0.69
2019-02-24T06:16:22.397Z,-0.44
2019-02-24T06:26:27.209Z,-0.44
2019-02-24T06:36:32.186Z,-0.42
2019-02-24T06:46:36.971Z,-0.50
2019-02-24T06:56:41.766Z,-0.13
2019-02-24T07:06:46.541Z,-0.15
2019-02-24T07:16:51.348Z,-0.18
2019-02-24T07:26:56.009Z,0.07
2019-02-24T07:37:00.838Z,0.03
2019-02-24T07:47:05.575Z,0.57
2019-02-24T07:57:10.373Z,0.81
2019-02-24T08:07:15.158Z,1.16
2019-02-24T08:17:19.985Z,1.69
2019-02-24T08:27:24.863Z,2.14
2019-02-24T08:37:29.705Z,2.00
2019-02-24T08:47:34.422Z,2.13
2019-02-24T08:57:39.459Z,2.70
2019-02-24T09:07:44.342Z,2.52
2019-02-24T09:17:49.334Z,2.77
2019-02-24T09:27:54.220Z,2.58
2019-02-24T09:37:59.221Z,3.26
2019-02-24T09:48:04.901Z,4.74
2019-02-24T09:58:09.780Z,4.68
2019-02-24T10:08:14.580Z,4.91
2019-02-24T10:18:19.524Z,3.75
2019-02-24T10:28:24.384Z,3.61
2019-02-24T10:38:29.515Z,3.26
2019-02-24T10:48:34.385Z,3.97
2019-02-24T10:58:40.158Z,4.52
2019-02-24T11:08:45.339Z,8.25
2019-02-24T11:18:50.143Z,8.91
2019-02-24T11:28:55.047Z,8.27
2019-02-24T11:39:00.006Z,10.21
2019-02-24T11:49:05.087Z,9.42
2019-02-24T11:59:09.929Z,9.84
2019-02-24T12:09:14.577Z,9.26
2019-02-24T12:19:19.808Z,8.85
2019-02-24T12:29:24.528Z,9.21
2019-02-24T12:39:29.617Z,7.13
2019-02-24T12:49:34.667Z,7.60
2019-02-24T12:59:40.496Z,7.14
2019-02-24T13:09:45.510Z,6.37
2019-02-24T13:19:51.567Z,6.16
2019-02-24T13:29:56.562Z,6.08
2019-02-24T13:40:01.605Z,6.01
2019-02-24T13:50:06.940Z,5.82
2019-02-24T14:00:19.002Z,5.84
2019-02-24T14:10:24.202Z,5.67
2019-02-24T14:20:29.355Z,5.45
2019-02-24T14:30:36.528Z,5.42
2019-02-24T14:40:41.765Z,5.40
2019-02-24T14:50:46.572Z,5.13
2019-02-24T15:00:51.727Z,4.89
2019-02-24T15:10:56.566Z,4.86
2019-02-24T15:21:01.487Z,4.79
2019-02-24T15:31:06.258Z,4.86
2019-02-24T15:41:11.156Z,4.69
2019-02-24T15:51:16.056Z,4.59
2019-02-24T16:01:20.901Z,4.45
2019-02-24T16:11:27.044Z,4.26
2019-02-24T16:21:32.021Z,4.03
2019-02-24T16:31:37.016Z,4.06
2019-02-24T16:41:43.563Z,3.85
2019-02-24T16:51:48.337Z,3.57
2019-02-24T17:01:53.971Z,3.45
2019-02-24T17:11:58.923Z,3.05
2019-02-24T17:22:03.831Z,3.04
2019-02-24T17:32:08.826Z,2.74
2019-02-24T17:42:13.956Z,2.58
2019-02-24T17:52:20.387Z,2.71
2019-02-24T18:02:27.951Z,2.74
2019-02-24T18:12:33.131Z,2.53
2019-02-24T18:22:38.412Z,2.63
2019-02-24T18:32:45.157Z,2.53
2019-02-24T18:42:59.353Z,2.22
2019-02-24T18:52:58.502Z,2.17
2019-02-24T19:03:04.972Z,1.95
2019-02-24T19:13:09.791Z,2.04
2019-02-24T19:23:15.864Z,1.72
2019-02-24T19:33:20.719Z,1.59
2019-02-24T19:43:25.731Z,1.25
2019-02-24T19:53:30.678Z,1.37
2019-02-24T20:03:35.643Z,1.02
2019-02-24T20:13:40.623Z,0.96
2019-02-24T20:23:46.199Z,0.83
2019-02-24T20:33:52.427Z,0.89
2019-02-24T20:43:57.366Z,0.87
2019-02-24T20:54:02.470Z,0.83
2019-02-24T21:04:07.231Z,0.61
2019-02-24T21:14:12.107Z,0.51
2019-02-24T21:24:17.197Z,0.48
2019-02-24T21:34:22.172Z,0.44
2019-02-24T21:44:27.050Z,0.30
2019-02-24T21:54:31.853Z,0.31
2019-02-24T22:04:36.746Z,0.25
2019-02-24T22:14:41.439Z,0.37
2019-02-24T22:24:46.130Z,0.39
2019-02-24T22:34:50.806Z,0.18
2019-02-24T22:44:56.622Z,0.10
2019-02-24T22:55:01.264Z,0.21
2019-02-24T23:05:06.297Z,0.15
2019-02-24T23:15:12.729Z,0.03
2019-02-24T23:25:17.426Z,-0.16
2019-02-24T23:35:22.208Z,-0.01
2019-02-24T23:45:26.928Z,-0.26
2019-02-24T23:55:31.683Z,-0.29
